sensor_id;sensor_type;location;lat;lon;timestamp;P1;durP1;ratioP1;P2;durP2;ratioP2
1128;SDS011;553;51.038;7.216;2023-02-28T00:00:35;2.95;;;2.20;;
1128;SDS011;553;51.038;7.216;2023-02-28T00:03:03;2.40;;;2.00;;
1128;SDS011;553;51.038;7.216;2023-02-28T00:05:30;3.42;;;2.50;;
1128;SDS011;553;51.038;7.216;2023-02-28T00:07:57;3.35;;;2.33;;
1128;SDS011;553;51.038;7.216;2023-02-28T00:10:26;4.38;;;2.25;;
1128;SDS011;553;51.038;7.216;2023-02-28T00:12:55;4.65;;;2.30;;
1128;SDS011;553;51.038;7.216;2023-02-28T00:15:25;3.97;;;2.00;;
1128;SDS011;553;51.038;7.216;2023-02-28T00:17:52;4.28;;;2.22;;
1128;SDS011;553;51.038;7.216;2023-02-28T00:20:19;3.55;;;1.92;;
1128;SDS011;553;51.038;7.216;2023-02-28T00:22:47;4.45;;;2.33;;
1128;SDS011;553;51.038;7.216;2023-02-28T00:25:17;2.58;;;2.20;;
1128;SDS011;553;51.038;7.216;2023-02-28T00:27:45;4.13;;;2.42;;
1128;SDS011;553;51.038;7.216;2023-02-28T00:30:13;3.60;;;1.88;;
1128;SDS011;553;51.038;7.216;2023-02-28T00:32:42;3.47;;;2.28;;
1128;SDS011;553;51.038;7.216;2023-02-28T00:35:10;4.22;;;2.20;;
1128;SDS011;553;51.038;7.216;2023-02-28T00:37:40;4.03;;;2.05;;
1128;SDS011;553;51.038;7.216;2023-02-28T00:40:07;5.85;;;2.80;;
1128;SDS011;553;51.038;7.216;2023-02-28T00:42:38;4.35;;;2.25;;
1128;SDS011;553;51.038;7.216;2023-02-28T00:53:32;4.28;;;2.35;;
1128;SDS011;553;51.038;7.216;2023-02-28T00:55:59;4.05;;;2.47;;
1128;SDS011;553;51.038;7.216;2023-02-28T00:58:26;4.38;;;3.03;;
1128;SDS011;553;51.038;7.216;2023-02-28T01:00:53;7.38;;;2.83;;
1128;SDS011;553;51.038;7.216;2023-02-28T01:03:20;5.40;;;2.30;;
1128;SDS011;553;51.038;7.216;2023-02-28T01:05:48;4.03;;;2.67;;
1128;SDS011;553;51.038;7.216;2023-02-28T01:08:15;3.15;;;2.70;;
1128;SDS011;553;51.038;7.216;2023-02-28T01:10:42;3.10;;;2.30;;
1128;SDS011;553;51.038;7.216;2023-02-28T01:13:09;4.47;;;2.70;;
1128;SDS011;553;51.038;7.216;2023-02-28T01:15:37;4.55;;;2.78;;
1128;SDS011;553;51.038;7.216;2023-02-28T01:18:15;3.58;;;2.33;;
1128;SDS011;553;51.038;7.216;2023-02-28T01:20:42;2.38;;;1.70;;
1128;SDS011;553;51.038;7.216;2023-02-28T01:23:09;3.78;;;2.20;;
1128;SDS011;553;51.038;7.216;2023-02-28T01:25:36;2.85;;;1.85;;
1128;SDS011;553;51.038;7.216;2023-02-28T01:28:04;4.00;;;2.40;;
1128;SDS011;553;51.038;7.216;2023-02-28T01:30:31;3.25;;;1.88;;
1128;SDS011;553;51.038;7.216;2023-02-28T01:32:58;3.55;;;2.10;;
1128;SDS011;553;51.038;7.216;2023-02-28T01:35:25;5.07;;;2.20;;
1128;SDS011;553;51.038;7.216;2023-02-28T01:37:53;3.78;;;2.22;;
1128;SDS011;553;51.038;7.216;2023-02-28T01:40:20;3.83;;;2.60;;
1128;SDS011;553;51.038;7.216;2023-02-28T01:42:46;2.67;;;2.00;;
1128;SDS011;553;51.038;7.216;2023-02-28T01:45:18;3.38;;;2.25;;
1128;SDS011;553;51.038;7.216;2023-02-28T01:47:54;5.88;;;2.72;;
1128;SDS011;553;51.038;7.216;2023-02-28T01:50:28;5.82;;;2.65;;
1128;SDS011;553;51.038;7.216;2023-02-28T01:53:00;4.57;;;2.67;;
1128;SDS011;553;51.038;7.216;2023-02-28T01:55:30;3.60;;;2.42;;
1128;SDS011;553;51.038;7.216;2023-02-28T01:58:00;2.90;;;2.28;;
1128;SDS011;553;51.038;7.216;2023-02-28T02:00:29;3.35;;;2.22;;
1128;SDS011;553;51.038;7.216;2023-02-28T02:02:57;3.65;;;2.30;;
1128;SDS011;553;51.038;7.216;2023-02-28T02:05:28;3.67;;;2.05;;
1128;SDS011;553;51.038;7.216;2023-02-28T02:08:04;3.95;;;2.33;;
1128;SDS011;553;51.038;7.216;2023-02-28T02:10:36;2.50;;;2.20;;
1128;SDS011;553;51.038;7.216;2023-02-28T02:13:21;2.67;;;2.17;;
1128;SDS011;553;51.038;7.216;2023-02-28T02:22:25;2.83;;;1.60;;
1128;SDS011;553;51.038;7.216;2023-02-28T02:28:05;2.75;;;1.95;;
1128;SDS011;553;51.038;7.216;2023-02-28T02:30:59;2.35;;;1.95;;
1128;SDS011;553;51.038;7.216;2023-02-28T02:36:27;2.38;;;2.00;;
1128;SDS011;553;51.038;7.216;2023-02-28T02:41:49;3.25;;;2.60;;
1128;SDS011;553;51.038;7.216;2023-02-28T02:44:30;2.33;;;2.10;;
1128;SDS011;553;51.038;7.216;2023-02-28T02:47:08;3.88;;;2.03;;
1128;SDS011;553;51.038;7.216;2023-02-28T02:49:38;4.28;;;2.30;;
1128;SDS011;553;51.038;7.216;2023-02-28T02:52:09;2.72;;;2.00;;
1128;SDS011;553;51.038;7.216;2023-02-28T02:54:41;3.58;;;2.15;;
1128;SDS011;553;51.038;7.216;2023-02-28T02:57:15;4.45;;;2.90;;
1128;SDS011;553;51.038;7.216;2023-02-28T02:59:47;6.20;;;3.15;;
1128;SDS011;553;51.038;7.216;2023-02-28T03:02:18;2.03;;;1.80;;
1128;SDS011;553;51.038;7.216;2023-02-28T03:04:52;2.65;;;1.83;;
1128;SDS011;553;51.038;7.216;2023-02-28T03:07:26;2.45;;;1.85;;
1128;SDS011;553;51.038;7.216;2023-02-28T03:09:54;5.13;;;2.40;;
1128;SDS011;553;51.038;7.216;2023-02-28T03:12:32;4.43;;;2.90;;
1128;SDS011;553;51.038;7.216;2023-02-28T03:17:56;3.28;;;2.72;;
1128;SDS011;553;51.038;7.216;2023-02-28T03:23:32;5.22;;;2.38;;
1128;SDS011;553;51.038;7.216;2023-02-28T03:26:12;6.45;;;3.78;;
1128;SDS011;553;51.038;7.216;2023-02-28T03:36:45;4.93;;;2.65;;
1128;SDS011;553;51.038;7.216;2023-02-28T03:39:17;4.28;;;3.22;;
1128;SDS011;553;51.038;7.216;2023-02-28T03:42:07;4.15;;;3.30;;
1128;SDS011;553;51.038;7.216;2023-02-28T03:44:42;3.25;;;2.95;;
1128;SDS011;553;51.038;7.216;2023-02-28T03:47:19;4.03;;;2.92;;
1128;SDS011;553;51.038;7.216;2023-02-28T03:50:07;6.35;;;3.28;;
1128;SDS011;553;51.038;7.216;2023-02-28T03:52:38;4.13;;;2.88;;
1128;SDS011;553;51.038;7.216;2023-02-28T03:55:15;5.10;;;3.40;;
1128;SDS011;553;51.038;7.216;2023-02-28T03:58:07;6.13;;;3.38;;
1128;SDS011;553;51.038;7.216;2023-02-28T04:00:37;3.83;;;3.28;;
1128;SDS011;553;51.038;7.216;2023-02-28T04:03:07;4.63;;;3.13;;
1128;SDS011;553;51.038;7.216;2023-02-28T04:05:40;5.00;;;3.13;;
1128;SDS011;553;51.038;7.216;2023-02-28T04:08:14;4.60;;;2.58;;
1128;SDS011;553;51.038;7.216;2023-02-28T04:10:40;9.45;;;3.40;;
1128;SDS011;553;51.038;7.216;2023-02-28T04:13:11;5.80;;;3.40;;
1128;SDS011;553;51.038;7.216;2023-02-28T04:15:37;6.43;;;2.42;;
1128;SDS011;553;51.038;7.216;2023-02-28T04:18:04;4.95;;;3.03;;
1128;SDS011;553;51.038;7.216;2023-02-28T04:20:31;4.05;;;2.88;;
1128;SDS011;553;51.038;7.216;2023-02-28T04:22:58;5.75;;;3.20;;
1128;SDS011;553;51.038;7.216;2023-02-28T04:25:24;6.22;;;3.67;;
1128;SDS011;553;51.038;7.216;2023-02-28T04:27:51;6.05;;;3.10;;
1128;SDS011;553;51.038;7.216;2023-02-28T04:30:18;4.05;;;3.15;;
1128;SDS011;553;51.038;7.216;2023-02-28T04:32:44;5.47;;;3.38;;
1128;SDS011;553;51.038;7.216;2023-02-28T04:35:11;6.75;;;2.85;;
1128;SDS011;553;51.038;7.216;2023-02-28T04:37:38;6.95;;;3.70;;
1128;SDS011;553;51.038;7.216;2023-02-28T04:40:04;6.65;;;2.72;;
1128;SDS011;553;51.038;7.216;2023-02-28T04:42:32;6.18;;;2.92;;
1128;SDS011;553;51.038;7.216;2023-02-28T04:45:02;5.05;;;2.70;;
1128;SDS011;553;51.038;7.216;2023-02-28T04:47:29;3.85;;;3.50;;
1128;SDS011;553;51.038;7.216;2023-02-28T04:49:56;5.72;;;3.80;;
1128;SDS011;553;51.038;7.216;2023-02-28T04:52:23;5.45;;;3.05;;
1128;SDS011;553;51.038;7.216;2023-02-28T04:54:50;5.43;;;3.20;;
1128;SDS011;553;51.038;7.216;2023-02-28T04:57:16;3.85;;;2.45;;
1128;SDS011;553;51.038;7.216;2023-02-28T04:59:43;4.63;;;2.85;;
1128;SDS011;553;51.038;7.216;2023-02-28T05:02:10;6.63;;;3.30;;
1128;SDS011;553;51.038;7.216;2023-02-28T05:04:37;4.25;;;2.88;;
1128;SDS011;553;51.038;7.216;2023-02-28T05:07:03;2.70;;;2.30;;
1128;SDS011;553;51.038;7.216;2023-02-28T05:09:31;3.60;;;2.75;;
1128;SDS011;553;51.038;7.216;2023-02-28T05:11:58;5.45;;;3.30;;
1128;SDS011;553;51.038;7.216;2023-02-28T05:14:25;5.80;;;3.15;;
1128;SDS011;553;51.038;7.216;2023-02-28T05:16:52;3.03;;;2.70;;
1128;SDS011;553;51.038;7.216;2023-02-28T05:19:18;3.90;;;2.70;;
1128;SDS011;553;51.038;7.216;2023-02-28T05:21:51;3.22;;;2.13;;
1128;SDS011;553;51.038;7.216;2023-02-28T05:24:20;4.75;;;2.70;;
1128;SDS011;553;51.038;7.216;2023-02-28T05:26:50;3.92;;;2.60;;
1128;SDS011;553;51.038;7.216;2023-02-28T05:29:19;7.30;;;3.42;;
1128;SDS011;553;51.038;7.216;2023-02-28T05:31:46;3.60;;;2.70;;
1128;SDS011;553;51.038;7.216;2023-02-28T05:34:14;5.43;;;2.72;;
1128;SDS011;553;51.038;7.216;2023-02-28T05:36:41;4.60;;;3.00;;
1128;SDS011;553;51.038;7.216;2023-02-28T05:39:08;5.28;;;2.40;;
1128;SDS011;553;51.038;7.216;2023-02-28T05:41:39;3.38;;;2.65;;
1128;SDS011;553;51.038;7.216;2023-02-28T05:44:09;4.65;;;2.85;;
1128;SDS011;553;51.038;7.216;2023-02-28T05:46:36;2.90;;;2.55;;
1128;SDS011;553;51.038;7.216;2023-02-28T05:49:04;5.05;;;2.70;;
1128;SDS011;553;51.038;7.216;2023-02-28T05:51:31;4.18;;;2.63;;
1128;SDS011;553;51.038;7.216;2023-02-28T05:53:58;4.18;;;3.13;;
1128;SDS011;553;51.038;7.216;2023-02-28T05:56:26;5.97;;;3.58;;
1128;SDS011;553;51.038;7.216;2023-02-28T05:58:53;6.13;;;2.63;;
1128;SDS011;553;51.038;7.216;2023-02-28T06:01:22;4.55;;;3.22;;
1128;SDS011;553;51.038;7.216;2023-02-28T06:03:52;5.00;;;2.95;;
1128;SDS011;553;51.038;7.216;2023-02-28T06:06:18;4.15;;;2.92;;
1128;SDS011;553;51.038;7.216;2023-02-28T06:08:45;3.95;;;2.40;;
1128;SDS011;553;51.038;7.216;2023-02-28T06:11:12;3.80;;;3.00;;
1128;SDS011;553;51.038;7.216;2023-02-28T06:13:39;5.45;;;2.45;;
1128;SDS011;553;51.038;7.216;2023-02-28T06:16:06;4.82;;;2.63;;
1128;SDS011;553;51.038;7.216;2023-02-28T06:18:34;4.28;;;2.67;;
1128;SDS011;553;51.038;7.216;2023-02-28T06:21:00;4.22;;;2.60;;
1128;SDS011;553;51.038;7.216;2023-02-28T06:23:27;3.33;;;2.70;;
1128;SDS011;553;51.038;7.216;2023-02-28T06:25:54;4.40;;;3.05;;
1128;SDS011;553;51.038;7.216;2023-02-28T06:28:24;3.50;;;3.05;;
1128;SDS011;553;51.038;7.216;2023-02-28T06:30:51;4.35;;;2.80;;
1128;SDS011;553;51.038;7.216;2023-02-28T06:33:18;11.38;;;3.00;;
1128;SDS011;553;51.038;7.216;2023-02-28T06:35:51;3.78;;;2.65;;
1128;SDS011;553;51.038;7.216;2023-02-28T06:38:18;5.47;;;2.75;;
1128;SDS011;553;51.038;7.216;2023-02-28T06:40:52;3.72;;;2.85;;
1128;SDS011;553;51.038;7.216;2023-02-28T06:43:20;4.70;;;3.20;;
1128;SDS011;553;51.038;7.216;2023-02-28T06:45:47;4.32;;;3.15;;
1128;SDS011;553;51.038;7.216;2023-02-28T06:48:15;6.20;;;3.53;;
1128;SDS011;553;51.038;7.216;2023-02-28T06:50:42;3.00;;;2.38;;
1128;SDS011;553;51.038;7.216;2023-02-28T06:53:09;6.10;;;3.38;;
1128;SDS011;553;51.038;7.216;2023-02-28T06:55:37;3.95;;;3.10;;
1128;SDS011;553;51.038;7.216;2023-02-28T06:58:04;3.85;;;3.10;;
1128;SDS011;553;51.038;7.216;2023-02-28T07:00:41;4.40;;;3.05;;
1128;SDS011;553;51.038;7.216;2023-02-28T07:03:10;3.63;;;2.50;;
1128;SDS011;553;51.038;7.216;2023-02-28T07:05:38;5.68;;;2.95;;
1128;SDS011;553;51.038;7.216;2023-02-28T07:08:05;3.95;;;2.70;;
1128;SDS011;553;51.038;7.216;2023-02-28T07:10:32;3.58;;;2.40;;
1128;SDS011;553;51.038;7.216;2023-02-28T07:13:00;2.83;;;2.33;;
1128;SDS011;553;51.038;7.216;2023-02-28T07:15:26;4.10;;;2.65;;
1128;SDS011;553;51.038;7.216;2023-02-28T07:17:53;4.30;;;2.95;;
1128;SDS011;553;51.038;7.216;2023-02-28T07:20:20;3.50;;;2.40;;
1128;SDS011;553;51.038;7.216;2023-02-28T07:22:46;6.80;;;2.30;;
1128;SDS011;553;51.038;7.216;2023-02-28T07:25:24;3.33;;;2.60;;
1128;SDS011;553;51.038;7.216;2023-02-28T07:27:54;4.28;;;2.95;;
1128;SDS011;553;51.038;7.216;2023-02-28T07:30:22;4.55;;;2.50;;
1128;SDS011;553;51.038;7.216;2023-02-28T07:32:49;3.80;;;2.47;;
1128;SDS011;553;51.038;7.216;2023-02-28T07:35:16;4.05;;;3.40;;
1128;SDS011;553;51.038;7.216;2023-02-28T07:37:42;5.25;;;3.17;;
1128;SDS011;553;51.038;7.216;2023-02-28T07:40:10;4.65;;;2.63;;
1128;SDS011;553;51.038;7.216;2023-02-28T07:42:41;3.53;;;2.60;;
1128;SDS011;553;51.038;7.216;2023-02-28T07:45:08;3.75;;;2.80;;
1128;SDS011;553;51.038;7.216;2023-02-28T07:47:38;4.95;;;3.22;;
1128;SDS011;553;51.038;7.216;2023-02-28T07:50:05;4.78;;;2.83;;
1128;SDS011;553;51.038;7.216;2023-02-28T07:52:33;3.90;;;3.10;;
1128;SDS011;553;51.038;7.216;2023-02-28T07:55:00;8.55;;;3.10;;
1128;SDS011;553;51.038;7.216;2023-02-28T07:57:27;4.40;;;2.38;;
1128;SDS011;553;51.038;7.216;2023-02-28T07:59:53;3.75;;;2.50;;
1128;SDS011;553;51.038;7.216;2023-02-28T08:02:20;3.58;;;2.80;;
1128;SDS011;553;51.038;7.216;2023-02-28T08:04:47;2.67;;;2.13;;
1128;SDS011;553;51.038;7.216;2023-02-28T08:07:15;4.68;;;2.55;;
1128;SDS011;553;51.038;7.216;2023-02-28T08:09:43;4.35;;;3.08;;
1128;SDS011;553;51.038;7.216;2023-02-28T08:12:10;4.65;;;2.50;;
1128;SDS011;553;51.038;7.216;2023-02-28T08:14:37;4.03;;;2.72;;
1128;SDS011;553;51.038;7.216;2023-02-28T08:17:05;2.70;;;2.15;;
1128;SDS011;553;51.038;7.216;2023-02-28T08:19:32;3.05;;;2.10;;
1128;SDS011;553;51.038;7.216;2023-02-28T08:21:59;3.72;;;1.90;;
1128;SDS011;553;51.038;7.216;2023-02-28T08:24:26;3.50;;;2.38;;
1128;SDS011;553;51.038;7.216;2023-02-28T08:26:52;4.10;;;2.45;;
1128;SDS011;553;51.038;7.216;2023-02-28T08:29:19;3.00;;;2.10;;
1128;SDS011;553;51.038;7.216;2023-02-28T08:31:46;4.60;;;2.42;;
1128;SDS011;553;51.038;7.216;2023-02-28T08:34:13;4.32;;;2.30;;
1128;SDS011;553;51.038;7.216;2023-02-28T08:36:41;4.40;;;2.65;;
1128;SDS011;553;51.038;7.216;2023-02-28T08:39:11;4.45;;;2.80;;
1128;SDS011;553;51.038;7.216;2023-02-28T08:41:38;3.05;;;2.10;;
1128;SDS011;553;51.038;7.216;2023-02-28T08:44:05;5.55;;;1.95;;
1128;SDS011;553;51.038;7.216;2023-02-28T08:46:32;3.38;;;3.08;;
1128;SDS011;553;51.038;7.216;2023-02-28T08:48:58;3.60;;;2.23;;
1128;SDS011;553;51.038;7.216;2023-02-28T08:51:27;2.92;;;2.13;;
1128;SDS011;553;51.038;7.216;2023-02-28T08:53:58;3.40;;;2.07;;
1128;SDS011;553;51.038;7.216;2023-02-28T08:56:26;7.97;;;7.27;;
1128;SDS011;553;51.038;7.216;2023-02-28T08:58:54;3.60;;;1.90;;
1128;SDS011;553;51.038;7.216;2023-02-28T09:01:23;2.30;;;2.10;;
1128;SDS011;553;51.038;7.216;2023-02-28T09:03:54;3.30;;;2.07;;
1128;SDS011;553;51.038;7.216;2023-02-28T09:06:26;2.00;;;1.80;;
1128;SDS011;553;51.038;7.216;2023-02-28T09:08:57;2.83;;;1.73;;
1128;SDS011;553;51.038;7.216;2023-02-28T09:11:25;2.83;;;1.83;;
1128;SDS011;553;51.038;7.216;2023-02-28T09:13:52;2.17;;;1.57;;
1128;SDS011;553;51.038;7.216;2023-02-28T09:16:19;4.10;;;1.90;;
1128;SDS011;553;51.038;7.216;2023-02-28T09:18:45;3.40;;;2.40;;
1128;SDS011;553;51.038;7.216;2023-02-28T09:21:13;3.07;;;2.07;;
1128;SDS011;553;51.038;7.216;2023-02-28T09:23:45;2.03;;;1.53;;
1128;SDS011;553;51.038;7.216;2023-02-28T09:26:17;6.30;;;1.47;;
1128;SDS011;553;51.038;7.216;2023-02-28T09:28:46;2.07;;;1.47;;
1128;SDS011;553;51.038;7.216;2023-02-28T09:31:19;3.23;;;2.00;;
1128;SDS011;553;51.038;7.216;2023-02-28T09:33:48;1.70;;;1.13;;
1128;SDS011;553;51.038;7.216;2023-02-28T09:36:16;2.13;;;1.87;;
1128;SDS011;553;51.038;7.216;2023-02-28T09:38:43;1.83;;;1.10;;
1128;SDS011;553;51.038;7.216;2023-02-28T09:41:15;1.60;;;1.20;;
1128;SDS011;553;51.038;7.216;2023-02-28T09:43:44;2.37;;;1.37;;
1128;SDS011;553;51.038;7.216;2023-02-28T09:46:21;1.47;;;1.10;;
1128;SDS011;553;51.038;7.216;2023-02-28T09:49:02;4.03;;;1.40;;
1128;SDS011;553;51.038;7.216;2023-02-28T09:54:14;1.90;;;1.67;;
1128;SDS011;553;51.038;7.216;2023-02-28T09:56:59;1.83;;;1.40;;
1128;SDS011;553;51.038;7.216;2023-02-28T09:59:54;2.43;;;1.43;;
1128;SDS011;553;51.038;7.216;2023-02-28T10:02:41;3.40;;;1.50;;
1128;SDS011;553;51.038;7.216;2023-02-28T10:05:18;3.37;;;1.60;;
1128;SDS011;553;51.038;7.216;2023-02-28T10:10:38;1.73;;;0.97;;
1128;SDS011;553;51.038;7.216;2023-02-28T10:13:19;2.70;;;1.50;;
1128;SDS011;553;51.038;7.216;2023-02-28T10:15:53;2.33;;;1.77;;
1128;SDS011;553;51.038;7.216;2023-02-28T10:18:25;2.30;;;1.70;;
1128;SDS011;553;51.038;7.216;2023-02-28T10:21:05;4.47;;;1.70;;
1128;SDS011;553;51.038;7.216;2023-02-28T10:23:37;2.63;;;1.83;;
1128;SDS011;553;51.038;7.216;2023-02-28T10:26:12;1.83;;;1.20;;
1128;SDS011;553;51.038;7.216;2023-02-28T10:28:42;2.70;;;1.60;;
1128;SDS011;553;51.038;7.216;2023-02-28T10:31:14;3.27;;;1.90;;
1128;SDS011;553;51.038;7.216;2023-02-28T10:33:44;2.23;;;1.93;;
1128;SDS011;553;51.038;7.216;2023-02-28T10:36:13;2.10;;;1.67;;
1128;SDS011;553;51.038;7.216;2023-02-28T10:38:46;2.50;;;1.83;;
1128;SDS011;553;51.038;7.216;2023-02-28T10:41:15;2.87;;;2.00;;
1128;SDS011;553;51.038;7.216;2023-02-28T10:43:52;2.93;;;2.30;;
1128;SDS011;553;51.038;7.216;2023-02-28T10:46:37;3.10;;;2.00;;
1128;SDS011;553;51.038;7.216;2023-02-28T10:49:12;3.07;;;2.00;;
1128;SDS011;553;51.038;7.216;2023-02-28T10:51:47;2.07;;;1.77;;
1128;SDS011;553;51.038;7.216;2023-02-28T10:54:19;2.60;;;1.97;;
1128;SDS011;553;51.038;7.216;2023-02-28T10:57:06;4.63;;;3.70;;
1128;SDS011;553;51.038;7.216;2023-02-28T10:59:33;5.53;;;1.97;;
1128;SDS011;553;51.038;7.216;2023-02-28T11:02:00;5.20;;;2.43;;
1128;SDS011;553;51.038;7.216;2023-02-28T11:06:59;3.03;;;2.23;;
1128;SDS011;553;51.038;7.216;2023-02-28T11:09:46;3.93;;;2.40;;
1128;SDS011;553;51.038;7.216;2023-02-28T11:12:38;2.40;;;1.80;;
1128;SDS011;553;51.038;7.216;2023-02-28T11:15:21;4.00;;;2.03;;
1128;SDS011;553;51.038;7.216;2023-02-28T11:20:32;3.50;;;2.20;;
1128;SDS011;553;51.038;7.216;2023-02-28T11:23:01;2.60;;;1.93;;
1128;SDS011;553;51.038;7.216;2023-02-28T11:25:32;3.40;;;1.87;;
1128;SDS011;553;51.038;7.216;2023-02-28T11:28:01;2.40;;;2.13;;
1128;SDS011;553;51.038;7.216;2023-02-28T11:33:23;5.07;;;2.43;;
1128;SDS011;553;51.038;7.216;2023-02-28T11:36:12;8.10;;;2.20;;
1128;SDS011;553;51.038;7.216;2023-02-28T11:39:00;2.83;;;1.90;;
1128;SDS011;553;51.038;7.216;2023-02-28T11:52:53;2.73;;;2.20;;
1128;SDS011;553;51.038;7.216;2023-02-28T12:09:02;3.47;;;2.40;;
1128;SDS011;553;51.038;7.216;2023-02-28T12:11:40;3.83;;;2.80;;
1128;SDS011;553;51.038;7.216;2023-02-28T12:14:30;2.90;;;2.50;;
1128;SDS011;553;51.038;7.216;2023-02-28T12:17:24;5.10;;;2.33;;
1128;SDS011;553;51.038;7.216;2023-02-28T12:29:00;5.33;;;3.80;;
1128;SDS011;553;51.038;7.216;2023-02-28T12:31:35;4.53;;;2.73;;
1128;SDS011;553;51.038;7.216;2023-02-28T12:34:09;3.37;;;2.70;;
1128;SDS011;553;51.038;7.216;2023-02-28T12:36:44;3.17;;;2.60;;
1128;SDS011;553;51.038;7.216;2023-02-28T12:39:35;2.80;;;2.23;;
1128;SDS011;553;51.038;7.216;2023-02-28T12:42:32;3.03;;;2.60;;
1128;SDS011;553;51.038;7.216;2023-02-28T12:45:10;3.50;;;2.87;;
1128;SDS011;553;51.038;7.216;2023-02-28T12:47:55;2.70;;;2.33;;
1128;SDS011;553;51.038;7.216;2023-02-28T12:50:26;3.17;;;2.60;;
1128;SDS011;553;51.038;7.216;2023-02-28T12:53:00;5.10;;;2.67;;
1128;SDS011;553;51.038;7.216;2023-02-28T12:55:39;4.77;;;2.70;;
1128;SDS011;553;51.038;7.216;2023-02-28T13:01:25;5.03;;;3.20;;
1128;SDS011;553;51.038;7.216;2023-02-28T13:07:10;2.70;;;2.23;;
1128;SDS011;553;51.038;7.216;2023-02-28T13:09:57;6.67;;;2.80;;
1128;SDS011;553;51.038;7.216;2023-02-28T13:12:26;5.50;;;3.07;;
1128;SDS011;553;51.038;7.216;2023-02-28T13:17:53;3.43;;;2.83;;
1128;SDS011;553;51.038;7.216;2023-02-28T13:20:27;3.80;;;2.70;;
1128;SDS011;553;51.038;7.216;2023-02-28T13:23:00;3.30;;;2.47;;
1128;SDS011;553;51.038;7.216;2023-02-28T13:28:08;4.10;;;2.80;;
1128;SDS011;553;51.038;7.216;2023-02-28T13:33:34;3.03;;;2.57;;
1128;SDS011;553;51.038;7.216;2023-02-28T13:36:09;3.80;;;2.97;;
1128;SDS011;553;51.038;7.216;2023-02-28T13:47:30;5.47;;;3.33;;
1128;SDS011;553;51.038;7.216;2023-02-28T13:55:25;6.97;;;3.60;;
1128;SDS011;553;51.038;7.216;2023-02-28T14:09:06;3.90;;;3.40;;
1128;SDS011;553;51.038;7.216;2023-02-28T14:11:47;4.40;;;3.20;;
1128;SDS011;553;51.038;7.216;2023-02-28T14:17:01;3.80;;;3.10;;
1128;SDS011;553;51.038;7.216;2023-02-28T14:19:40;5.23;;;3.17;;
1128;SDS011;553;51.038;7.216;2023-02-28T14:30:48;3.40;;;2.30;;
1128;SDS011;553;51.038;7.216;2023-02-28T14:33:38;5.00;;;2.60;;
1128;SDS011;553;51.038;7.216;2023-02-28T14:39:04;5.60;;;3.23;;
1128;SDS011;553;51.038;7.216;2023-02-28T14:41:43;3.10;;;2.80;;
1128;SDS011;553;51.038;7.216;2023-02-28T14:44:24;2.97;;;2.60;;
1128;SDS011;553;51.038;7.216;2023-02-28T14:46:53;4.47;;;3.00;;
1128;SDS011;553;51.038;7.216;2023-02-28T14:49:26;4.93;;;3.10;;
1128;SDS011;553;51.038;7.216;2023-02-28T14:52:03;4.87;;;3.40;;
1128;SDS011;553;51.038;7.216;2023-02-28T14:54:36;5.13;;;3.40;;
1128;SDS011;553;51.038;7.216;2023-02-28T14:57:04;4.97;;;3.30;;
1128;SDS011;553;51.038;7.216;2023-02-28T14:59:32;5.53;;;4.13;;
1128;SDS011;553;51.038;7.216;2023-02-28T15:02:16;4.10;;;3.40;;
1128;SDS011;553;51.038;7.216;2023-02-28T15:05:02;4.43;;;3.17;;
1128;SDS011;553;51.038;7.216;2023-02-28T15:07:42;4.20;;;3.00;;
1128;SDS011;553;51.038;7.216;2023-02-28T15:10:25;3.77;;;3.13;;
1128;SDS011;553;51.038;7.216;2023-02-28T15:12:57;5.60;;;3.60;;
1128;SDS011;553;51.038;7.216;2023-02-28T15:15:40;3.80;;;3.30;;
1128;SDS011;553;51.038;7.216;2023-02-28T15:21:21;4.00;;;2.57;;
1128;SDS011;553;51.038;7.216;2023-02-28T15:23:58;3.20;;;2.80;;
1128;SDS011;553;51.038;7.216;2023-02-28T15:26:32;3.93;;;2.70;;
1128;SDS011;553;51.038;7.216;2023-02-28T15:29:05;8.10;;;5.77;;
1128;SDS011;553;51.038;7.216;2023-02-28T15:31:49;3.90;;;2.70;;
1128;SDS011;553;51.038;7.216;2023-02-28T15:34:39;7.17;;;4.60;;
1128;SDS011;553;51.038;7.216;2023-02-28T15:39:58;4.20;;;2.90;;
1128;SDS011;553;51.038;7.216;2023-02-28T15:42:36;3.80;;;3.00;;
1128;SDS011;553;51.038;7.216;2023-02-28T15:45:03;5.27;;;4.60;;
1128;SDS011;553;51.038;7.216;2023-02-28T15:47:30;4.33;;;2.70;;
1128;SDS011;553;51.038;7.216;2023-02-28T15:50:03;3.40;;;3.10;;
1128;SDS011;553;51.038;7.216;2023-02-28T15:52:43;3.20;;;2.80;;
1128;SDS011;553;51.038;7.216;2023-02-28T15:55:16;5.80;;;3.63;;
1128;SDS011;553;51.038;7.216;2023-02-28T15:57:53;5.87;;;2.77;;
1128;SDS011;553;51.038;7.216;2023-02-28T16:00:26;4.47;;;3.13;;
1128;SDS011;553;51.038;7.216;2023-02-28T16:02:54;3.63;;;2.80;;
1128;SDS011;553;51.038;7.216;2023-02-28T16:07:58;3.23;;;2.70;;
1128;SDS011;553;51.038;7.216;2023-02-28T16:10:28;4.53;;;3.30;;
1128;SDS011;553;51.038;7.216;2023-02-28T16:12:55;4.70;;;2.87;;
1128;SDS011;553;51.038;7.216;2023-02-28T16:15:25;4.57;;;2.60;;
1128;SDS011;553;51.038;7.216;2023-02-28T16:17:54;4.13;;;2.37;;
1128;SDS011;553;51.038;7.216;2023-02-28T16:20:23;3.27;;;2.97;;
1128;SDS011;553;51.038;7.216;2023-02-28T16:22:52;3.80;;;2.47;;
1128;SDS011;553;51.038;7.216;2023-02-28T16:25:20;4.37;;;3.30;;
1128;SDS011;553;51.038;7.216;2023-02-28T16:27:52;5.13;;;3.57;;
1128;SDS011;553;51.038;7.216;2023-02-28T16:30:22;5.00;;;3.67;;
1128;SDS011;553;51.038;7.216;2023-02-28T16:32:50;4.70;;;3.20;;
1128;SDS011;553;51.038;7.216;2023-02-28T16:35:18;4.33;;;2.80;;
1128;SDS011;553;51.038;7.216;2023-02-28T16:37:46;4.40;;;3.00;;
1128;SDS011;553;51.038;7.216;2023-02-28T16:40:14;8.37;;;5.00;;
1128;SDS011;553;51.038;7.216;2023-02-28T16:42:42;7.30;;;4.70;;
1128;SDS011;553;51.038;7.216;2023-02-28T16:45:14;4.70;;;3.20;;
1128;SDS011;553;51.038;7.216;2023-02-28T16:47:47;5.20;;;4.20;;
1128;SDS011;553;51.038;7.216;2023-02-28T16:50:15;5.73;;;4.20;;
1128;SDS011;553;51.038;7.216;2023-02-28T16:52:44;8.30;;;5.07;;
1128;SDS011;553;51.038;7.216;2023-02-28T16:55:11;4.93;;;3.73;;
1128;SDS011;553;51.038;7.216;2023-02-28T16:57:38;8.67;;;4.70;;
1128;SDS011;553;51.038;7.216;2023-02-28T17:00:07;5.10;;;3.60;;
1128;SDS011;553;51.038;7.216;2023-02-28T17:02:37;11.97;;;6.67;;
1128;SDS011;553;51.038;7.216;2023-02-28T17:05:08;6.40;;;4.90;;
1128;SDS011;553;51.038;7.216;2023-02-28T17:07:38;8.40;;;5.60;;
1128;SDS011;553;51.038;7.216;2023-02-28T17:10:16;5.40;;;4.13;;
1128;SDS011;553;51.038;7.216;2023-02-28T17:12:50;4.77;;;3.50;;
1128;SDS011;553;51.038;7.216;2023-02-28T17:15:21;6.77;;;4.50;;
1128;SDS011;553;51.038;7.216;2023-02-28T17:17:48;7.70;;;4.30;;
1128;SDS011;553;51.038;7.216;2023-02-28T17:20:17;6.37;;;4.70;;
1128;SDS011;553;51.038;7.216;2023-02-28T17:22:49;7.00;;;4.50;;
1128;SDS011;553;51.038;7.216;2023-02-28T17:25:16;7.73;;;4.63;;
1128;SDS011;553;51.038;7.216;2023-02-28T17:27:43;4.77;;;4.13;;
1128;SDS011;553;51.038;7.216;2023-02-28T17:32:45;8.87;;;4.27;;
1128;SDS011;553;51.038;7.216;2023-02-28T17:35:12;6.70;;;4.33;;
1128;SDS011;553;51.038;7.216;2023-02-28T17:37:39;7.60;;;3.93;;
1128;SDS011;553;51.038;7.216;2023-02-28T17:40:09;5.73;;;3.93;;
1128;SDS011;553;51.038;7.216;2023-02-28T17:42:39;5.00;;;4.00;;
1128;SDS011;553;51.038;7.216;2023-02-28T17:45:06;7.40;;;4.93;;
1128;SDS011;553;51.038;7.216;2023-02-28T17:47:33;14.23;;;7.47;;
1128;SDS011;553;51.038;7.216;2023-02-28T17:50:00;9.10;;;5.70;;
1128;SDS011;553;51.038;7.216;2023-02-28T17:52:27;11.50;;;8.80;;
1128;SDS011;553;51.038;7.216;2023-02-28T17:54:55;14.17;;;8.43;;
1128;SDS011;553;51.038;7.216;2023-02-28T17:57:22;10.90;;;8.00;;
1128;SDS011;553;51.038;7.216;2023-02-28T17:59:50;21.43;;;14.50;;
1128;SDS011;553;51.038;7.216;2023-02-28T18:02:16;12.40;;;7.63;;
1128;SDS011;553;51.038;7.216;2023-02-28T18:04:43;12.20;;;8.00;;
1128;SDS011;553;51.038;7.216;2023-02-28T18:07:10;18.73;;;12.20;;
1128;SDS011;553;51.038;7.216;2023-02-28T18:09:37;14.63;;;11.60;;
1128;SDS011;553;51.038;7.216;2023-02-28T18:12:04;17.47;;;13.17;;
1128;SDS011;553;51.038;7.216;2023-02-28T18:14:31;16.73;;;12.03;;
1128;SDS011;553;51.038;7.216;2023-02-28T18:16:58;20.67;;;13.77;;
1128;SDS011;553;51.038;7.216;2023-02-28T18:19:24;21.13;;;13.90;;
1128;SDS011;553;51.038;7.216;2023-02-28T18:21:52;12.60;;;9.10;;
1128;SDS011;553;51.038;7.216;2023-02-28T18:24:20;17.63;;;13.03;;